createdAt,value
2023-03-27T00:00:56.344Z,91.21
2023-03-27T00:01:56.153Z,91.12
2023-03-27T00:03:49.103Z,91.02
2023-03-27T00:04:48.906Z,91.55
2023-03-27T00:06:41.761Z,91.50
2023-03-27T00:07:41.693Z,91.74
2023-03-27T00:09:34.564Z,91.69
2023-03-27T00:10:34.489Z,91.41
2023-03-27T00:12:27.344Z,91.50
2023-03-27T00:13:27.290Z,91.50
2023-03-27T00:15:20.138Z,92.07
2023-03-27T00:16:20.289Z,92.12
2023-03-27T00:18:12.927Z,91.55
2023-03-27T00:19:12.863Z,91.50
2023-03-27T00:21:05.718Z,91.60
2023-03-27T00:22:05.655Z,91.31
2023-03-27T00:23:58.516Z,91.98
2023-03-27T00:24:58.447Z,91.60
2023-03-27T00:26:51.312Z,91.50
2023-03-27T00:27:51.243Z,91.50
2023-03-27T00:29:44.105Z,91.78
2023-03-27T00:30:44.057Z,91.60
2023-03-27T00:32:36.923Z,91.98
2023-03-27T00:33:36.831Z,92.07
2023-03-27T00:35:29.714Z,92.02
2023-03-27T00:36:29.629Z,91.78
2023-03-27T00:38:22.487Z,91.98
2023-03-27T00:39:22.421Z,91.88
2023-03-27T00:41:15.392Z,91.88
2023-03-27T00:42:15.219Z,91.98
2023-03-27T00:44:08.069Z,91.69
2023-03-27T00:45:08.018Z,91.78
2023-03-27T00:47:00.856Z,92.07
2023-03-27T00:48:00.840Z,91.69
2023-03-27T00:49:53.646Z,92.26
2023-03-27T00:50:53.776Z,92.36
2023-03-27T00:52:46.442Z,92.36
2023-03-27T00:53:46.374Z,92.74
2023-03-27T00:55:39.228Z,92.46
2023-03-27T00:56:39.223Z,92.36
2023-03-27T00:58:32.023Z,92.55
2023-03-27T00:59:31.951Z,92.65
2023-03-27T01:01:24.912Z,92.46
2023-03-27T01:02:24.775Z,92.46
2023-03-27T01:04:17.605Z,92.46
2023-03-27T01:05:17.536Z,92.26
2023-03-27T01:07:10.391Z,92.26
2023-03-27T01:08:10.325Z,92.26
2023-03-27T01:10:03.185Z,92.26
2023-03-27T01:11:03.133Z,92.46
2023-03-27T01:12:55.973Z,92.46
2023-03-27T01:13:55.905Z,92.46
2023-03-27T01:15:48.787Z,92.26
2023-03-27T01:16:48.706Z,92.36
2023-03-27T01:18:41.558Z,92.17
2023-03-27T01:19:41.489Z,92.46
2023-03-27T01:21:34.347Z,92.36
2023-03-27T01:22:34.284Z,92.36
2023-03-27T01:24:27.214Z,92.36
2023-03-27T01:25:27.145Z,92.46
2023-03-27T01:27:20.010Z,92.46
2023-03-27T01:28:19.939Z,92.55
2023-03-27T01:30:12.808Z,92.74
2023-03-27T01:31:12.746Z,92.26
2023-03-27T01:33:05.649Z,91.88
2023-03-27T01:34:05.526Z,92.17
2023-03-27T01:35:58.436Z,92.17
2023-03-27T01:36:58.316Z,92.07
2023-03-27T01:38:51.184Z,91.88
2023-03-27T01:39:52.191Z,91.98
2023-03-27T01:41:43.972Z,91.98
2023-03-27T01:42:43.907Z,92.17
2023-03-27T01:44:43.539Z,92.17
2023-03-27T01:45:36.727Z,91.98
2023-03-27T01:47:29.574Z,92.17
2023-03-27T01:48:29.498Z,92.07
2023-03-27T01:50:22.347Z,92.07
2023-03-27T01:51:22.286Z,91.98
2023-03-27T01:53:15.154Z,91.88
2023-03-27T01:54:15.086Z,91.60
2023-03-27T01:56:07.964Z,91.31
2023-03-27T01:57:07.958Z,91.31
2023-03-27T01:59:00.739Z,91.78
2023-03-27T02:00:17.678Z,91.88
2023-03-27T02:01:53.538Z,91.69
2023-03-27T02:02:53.482Z,91.69
2023-03-27T02:04:46.375Z,91.60
2023-03-27T02:05:46.268Z,91.02
2023-03-27T02:07:39.118Z,91.31
2023-03-27T02:08:39.062Z,91.31
2023-03-27T02:10:31.912Z,91.69
2023-03-27T02:11:31.850Z,91.21
2023-03-27T02:13:24.702Z,90.45
2023-03-27T02:14:24.643Z,90.83
2023-03-27T02:16:17.581Z,91.12
2023-03-27T02:17:17.434Z,90.93
2023-03-27T02:19:10.302Z,90.73
2023-03-27T02:20:10.247Z,91.12
2023-03-27T02:22:03.099Z,91.12
2023-03-27T02:23:03.023Z,90.73
2023-03-27T02:24:55.880Z,90.12
2023-03-27T02:25:55.811Z,90.17
2023-03-27T02:27:48.680Z,90.17
2023-03-27T02:28:48.635Z,89.93
2023-03-27T02:30:41.464Z,89.93
2023-03-27T02:31:41.510Z,89.93
2023-03-27T02:33:34.272Z,90.31
2023-03-27T02:34:34.202Z,90.41
2023-03-27T02:36:27.053Z,90.31
2023-03-27T02:37:31.948Z,90.26
2023-03-27T02:39:19.839Z,90.03
2023-03-27T02:40:19.770Z,90.22
2023-03-27T02:42:12.630Z,90.17
2023-03-27T02:43:12.572Z,90.03
2023-03-27T02:45:05.420Z,90.03
2023-03-27T02:46:05.420Z,90.41
2023-03-27T02:47:58.820Z,90.31
2023-03-27T02:48:58.337Z,90.31
2023-03-27T02:50:51.192Z,90.22
2023-03-27T02:51:51.139Z,90.31
2023-03-27T02:53:43.991Z,90.31
2023-03-27T02:54:43.921Z,90.22
2023-03-27T02:56:36.814Z,90.22
2023-03-27T02:57:36.719Z,90.22
2023-03-27T02:59:29.656Z,90.22
2023-03-27T03:00:29.514Z,90.22
2023-03-27T03:02:22.404Z,90.31
2023-03-27T03:03:22.342Z,89.93
2023-03-27T03:05:15.154Z,90.31
2023-03-27T03:06:15.092Z,90.41
2023-03-27T03:08:07.963Z,90.50
2023-03-27T03:09:07.887Z,89.93
2023-03-27T03:11:00.832Z,90.03
2023-03-27T03:12:00.675Z,89.74
2023-03-27T03:13:53.528Z,89.93
2023-03-27T03:14:53.461Z,89.83
2023-03-27T03:16:46.363Z,90.03
2023-03-27T03:17:46.289Z,90.12
2023-03-27T03:19:39.121Z,89.93
2023-03-27T03:20:39.041Z,89.83
2023-03-27T03:22:31.900Z,89.26
2023-03-27T03:23:31.844Z,89.36
2023-03-27T03:25:24.697Z,89.45
2023-03-27T03:26:24.636Z,89.83
2023-03-27T03:28:17.486Z,89.83
2023-03-27T03:29:17.421Z,89.45
2023-03-27T03:31:10.332Z,90.03
2023-03-27T03:32:10.208Z,89.54
2023-03-27T03:34:03.061Z,89.83
2023-03-27T03:35:03.007Z,90.03
2023-03-27T03:36:55.858Z,88.98
2023-03-27T03:37:55.793Z,89.07
2023-03-27T03:39:48.665Z,89.07
2023-03-27T03:40:48.588Z,88.78
2023-03-27T03:42:41.444Z,88.40
2023-03-27T03:43:41.493Z,88.40
2023-03-27T03:45:34.256Z,88.31
2023-03-27T03:46:34.203Z,88.31
2023-03-27T03:48:27.026Z,87.93
2023-03-27T03:49:26.965Z,87.93
2023-03-27T03:51:19.817Z,88.02
2023-03-27T03:52:19.757Z,88.02
2023-03-27T03:54:12.611Z,88.02
2023-03-27T03:55:12.644Z,87.93
2023-03-27T03:57:05.484Z,87.93
2023-03-27T03:58:05.449Z,87.74
2023-03-27T03:59:58.195Z,88.02
2023-03-27T04:00:58.246Z,88.02
2023-03-27T04:02:51.046Z,87.93
2023-03-27T04:03:50.995Z,88.02
2023-03-27T04:05:43.780Z,88.12
2023-03-27T04:06:43.705Z,87.83
2023-03-27T04:08:36.564Z,87.74
2023-03-27T04:09:36.502Z,87.54
2023-03-27T04:11:29.451Z,87.35
2023-03-27T04:12:29.411Z,87.45
2023-03-27T04:14:22.146Z,87.64
2023-03-27T04:15:22.079Z,87.35
2023-03-27T04:17:14.934Z,87.74
2023-03-27T04:18:15.005Z,87.54
2023-03-27T04:20:07.731Z,88.02
2023-03-27T04:21:07.755Z,87.93
2023-03-27T04:23:00.516Z,87.93
2023-03-27T04:24:00.447Z,88.12
2023-03-27T04:25:53.410Z,87.64
2023-03-27T04:26:53.253Z,87.93
2023-03-27T04:28:46.097Z,87.64
2023-03-27T04:29:46.028Z,87.35
2023-03-27T04:31:38.923Z,87.74
2023-03-27T04:32:38.887Z,87.54
2023-03-27T04:34:31.686Z,87.26
2023-03-27T04:35:31.622Z,87.35
2023-03-27T04:37:24.484Z,87.26
2023-03-27T04:38:24.414Z,87.35
2023-03-27T04:40:17.275Z,87.54
2023-03-27T04:41:17.207Z,87.16
2023-03-27T04:43:10.075Z,86.78
2023-03-27T04:44:10.000Z,86.49
2023-03-27T04:46:02.853Z,86.88
2023-03-27T04:47:02.823Z,86.78
2023-03-27T04:48:55.648Z,86.49
2023-03-27T04:49:55.583Z,86.07
2023-03-27T04:51:48.433Z,85.97
2023-03-27T04:52:50.272Z,86.21
2023-03-27T04:54:41.230Z,85.41
2023-03-27T04:55:41.168Z,85.41
2023-03-27T04:57:34.035Z,85.31
2023-03-27T04:58:36.686Z,84.74
2023-03-27T05:00:26.804Z,84.92
2023-03-27T05:01:26.773Z,84.36
2023-03-27T05:03:19.636Z,84.07
2023-03-27T05:04:19.527Z,84.16
2023-03-27T05:06:12.383Z,84.92
2023-03-27T05:07:12.410Z,84.83
2023-03-27T05:09:05.174Z,84.45
2023-03-27T05:10:05.108Z,84.16
2023-03-27T05:11:57.958Z,84.45
2023-03-27T05:12:58.526Z,84.26
2023-03-27T05:14:50.754Z,84.36
2023-03-27T05:15:50.735Z,83.97
2023-03-27T05:17:43.679Z,84.16
2023-03-27T05:18:43.524Z,84.36
2023-03-27T05:20:36.401Z,84.92
2023-03-27T05:21:36.316Z,84.55
2023-03-27T05:23:29.217Z,84.83
2023-03-27T05:24:29.089Z,84.74
2023-03-27T05:26:22.017Z,84.36
2023-03-27T05:27:21.890Z,84.36
2023-03-27T05:29:14.763Z,84.36
2023-03-27T05:30:14.696Z,84.55
2023-03-27T05:32:07.540Z,84.36
2023-03-27T05:33:07.501Z,84.92
2023-03-27T05:35:00.332Z,84.36
2023-03-27T05:36:00.280Z,84.55
2023-03-27T05:37:53.152Z,84.45
2023-03-27T05:38:53.054Z,84.83
2023-03-27T05:40:46.485Z,84.36
2023-03-27T05:41:46.028Z,84.45
2023-03-27T05:43:38.922Z,84.36
2023-03-27T05:44:38.827Z,84.36
2023-03-27T05:46:31.748Z,84.55
2023-03-27T05:47:31.649Z,84.64
2023-03-27T05:49:24.470Z,84.16
2023-03-27T05:50:24.404Z,84.45
2023-03-27T05:52:17.259Z,83.97
2023-03-27T05:53:17.188Z,84.26
2023-03-27T05:55:10.042Z,84.45
2023-03-27T05:56:09.986Z,84.07
2023-03-27T05:58:02.841Z,83.97
2023-03-27T05:59:02.773Z,84.16
2023-03-27T06:01:03.136Z,84.45
2023-03-27T06:02:03.114Z,84.36
2023-03-27T06:03:56.232Z,84.55
2023-03-27T06:04:55.849Z,84.36
2023-03-27T06:06:48.702Z,84.36
2023-03-27T06:07:48.636Z,84.36
2023-03-27T06:09:41.492Z,84.36
2023-03-27T06:10:41.422Z,84.36
2023-03-27T06:12:34.301Z,84.36
2023-03-27T06:13:34.224Z,84.36
2023-03-27T06:15:27.081Z,84.55
2023-03-27T06:16:27.052Z,84.36
2023-03-27T06:18:19.872Z,84.45
2023-03-27T06:19:19.797Z,84.74
2023-03-27T06:21:12.648Z,84.55
2023-03-27T06:22:12.578Z,84.55
2023-03-27T06:24:05.441Z,84.74
2023-03-27T06:25:05.377Z,84.36
2023-03-27T06:26:58.226Z,83.88
2023-03-27T06:27:58.163Z,84.26
2023-03-27T06:29:51.029Z,83.69
2023-03-27T06:30:50.985Z,83.69
2023-03-27T06:32:43.850Z,84.07
2023-03-27T06:33:43.775Z,83.97
2023-03-27T06:35:36.642Z,83.78
2023-03-27T06:36:36.546Z,83.69
2023-03-27T06:38:29.398Z,83.97
2023-03-27T06:39:29.381Z,83.78
2023-03-27T06:41:22.184Z,84.07
2023-03-27T06:42:22.124Z,83.78
2023-03-27T06:44:15.050Z,83.69
2023-03-27T06:45:14.917Z,83.78
2023-03-27T06:47:07.834Z,83.40
2023-03-27T06:48:17.972Z,83.31
2023-03-27T06:50:00.579Z,83.40
2023-03-27T06:51:00.557Z,83.40
2023-03-27T06:52:53.356Z,83.40
2023-03-27T06:53:53.286Z,83.40
2023-03-27T06:55:46.142Z,83.50
2023-03-27T06:56:46.103Z,83.40
2023-03-27T06:58:38.958Z,83.21
2023-03-27T06:59:38.875Z,83.21
2023-03-27T07:01:31.746Z,83.59
2023-03-27T07:02:31.695Z,83.59
2023-03-27T07:04:24.510Z,83.31
2023-03-27T07:05:24.464Z,83.50
2023-03-27T07:07:17.352Z,82.83
2023-03-27T07:10:10.094Z,83.02
2023-03-27T07:11:12.462Z,82.83
2023-03-27T07:13:02.881Z,82.83
2023-03-27T07:14:02.811Z,82.98
2023-03-27T07:15:55.706Z,83.12
2023-03-27T07:16:55.601Z,82.79
2023-03-27T07:18:48.460Z,82.73
2023-03-27T07:19:48.686Z,83.21
2023-03-27T07:21:41.257Z,82.17
2023-03-27T07:22:41.277Z,82.31
2023-03-27T07:24:34.042Z,82.26
2023-03-27T07:25:33.974Z,82.45
2023-03-27T07:27:26.830Z,82.31
2023-03-27T07:28:26.779Z,82.54
2023-03-27T07:30:19.634Z,82.26
2023-03-27T07:31:33.099Z,82.54
2023-03-27T07:33:12.929Z,82.07
2023-03-27T07:34:12.567Z,82.26
2023-03-27T07:36:05.244Z,82.35
2023-03-27T07:37:05.153Z,82.41
2023-03-27T07:38:57.989Z,82.54
2023-03-27T07:39:57.925Z,82.35
2023-03-27T07:41:50.798Z,82.17
2023-03-27T07:42:50.718Z,81.93
2023-03-27T07:44:43.579Z,81.78
2023-03-27T07:45:43.546Z,82.12
2023-03-27T07:47:36.455Z,82.45
2023-03-27T07:48:36.312Z,82.07
2023-03-27T07:50:29.163Z,81.74
2023-03-27T07:51:29.093Z,81.93
2023-03-27T07:53:34.200Z,82.17
2023-03-27T07:54:21.884Z,81.46
2023-03-27T07:56:14.737Z,82.12
2023-03-27T07:57:14.745Z,82.07
2023-03-27T07:59:07.565Z,82.07
2023-03-27T08:00:07.501Z,81.46
2023-03-27T08:02:00.353Z,81.59
2023-03-27T08:03:00.441Z,81.74
2023-03-27T08:04:53.312Z,81.55
2023-03-27T08:05:53.079Z,81.65
2023-03-27T08:07:45.930Z,81.55
2023-03-27T08:08:45.873Z,81.17
2023-03-27T08:10:38.720Z,81.26
2023-03-27T08:11:38.677Z,81.30
2023-03-27T08:13:32.116Z,80.79
2023-03-27T08:14:31.633Z,80.98
2023-03-27T08:16:24.550Z,81.36
2023-03-27T08:17:24.462Z,81.17
2023-03-27T08:19:17.279Z,81.36
2023-03-27T08:20:17.213Z,81.46
2023-03-27T08:22:10.078Z,80.88
2023-03-27T08:23:10.008Z,80.92
2023-03-27T08:25:02.877Z,81.17
2023-03-27T08:26:02.910Z,80.69
2023-03-27T08:27:55.652Z,80.79
2023-03-27T08:28:55.586Z,80.88
2023-03-27T08:30:48.481Z,80.79
2023-03-27T08:31:48.371Z,80.79
2023-03-27T08:33:41.232Z,80.41
2023-03-27T08:34:41.172Z,80.79
2023-03-27T08:36:34.020Z,80.60
2023-03-27T08:37:33.944Z,80.88
2023-03-27T08:39:26.813Z,80.69
2023-03-27T08:40:26.802Z,80.92
2023-03-27T08:42:19.603Z,80.69
2023-03-27T08:43:19.538Z,81.26
2023-03-27T08:45:12.387Z,80.79
2023-03-27T08:46:12.359Z,80.69
2023-03-27T08:48:05.239Z,80.22
2023-03-27T08:49:05.132Z,80.88
2023-03-27T08:50:57.977Z,80.50
2023-03-27T08:51:57.915Z,80.50
2023-03-27T08:53:50.771Z,79.55
2023-03-27T08:54:50.701Z,79.55
2023-03-27T08:56:43.598Z,79.64
2023-03-27T08:57:43.500Z,79.36
2023-03-27T08:59:36.348Z,79.07
2023-03-27T09:00:36.287Z,79.49
2023-03-27T09:02:29.212Z,79.17
2023-03-27T09:03:29.198Z,79.49
2023-03-27T09:05:21.976Z,79.27
2023-03-27T09:06:21.864Z,79.30
2023-03-27T09:08:14.717Z,79.36
2023-03-27T09:09:14.650Z,78.88
2023-03-27T09:11:07.509Z,78.73
2023-03-27T09:12:07.460Z,78.59
2023-03-27T09:14:00.310Z,78.41
2023-03-27T09:15:00.232Z,78.69
2023-03-27T09:16:53.097Z,79.07
2023-03-27T09:17:53.118Z,78.88
2023-03-27T09:19:45.894Z,79.17
2023-03-27T09:20:45.816Z,78.78
2023-03-27T09:22:38.675Z,78.50
2023-03-27T09:23:38.609Z,78.50
2023-03-27T09:25:31.457Z,78.50
2023-03-27T09:26:31.398Z,78.03
2023-03-27T09:28:24.857Z,77.93
2023-03-27T09:29:24.381Z,77.93
2023-03-27T09:31:17.281Z,77.74
2023-03-27T09:32:17.191Z,77.36
2023-03-27T09:34:10.021Z,77.36
2023-03-27T09:35:09.953Z,77.36
2023-03-27T09:37:03.398Z,77.55
2023-03-27T09:38:02.934Z,77.45
2023-03-27T09:39:55.802Z,77.74
2023-03-27T09:40:55.725Z,76.79
2023-03-27T09:42:48.585Z,77.07
2023-03-27T09:43:48.518Z,76.69
2023-03-27T09:45:41.973Z,76.79
2023-03-27T09:46:41.549Z,76.79
2023-03-27T09:48:34.365Z,76.31
2023-03-27T09:49:34.285Z,76.31
2023-03-27T09:51:27.136Z,76.69
2023-03-27T09:52:27.071Z,76.69
2023-03-27T09:54:20.511Z,77.36
2023-03-27T09:55:20.258Z,76.88
2023-03-27T09:57:12.937Z,76.69
2023-03-27T09:58:12.847Z,76.59
2023-03-27T10:00:05.786Z,76.98
2023-03-27T10:01:05.679Z,77.17
2023-03-27T10:02:58.505Z,77.36
2023-03-27T10:03:58.466Z,77.17
2023-03-27T10:05:51.289Z,77.64
2023-03-27T10:06:51.214Z,77.93
2023-03-27T10:08:44.069Z,77.55
2023-03-27T10:09:44.007Z,77.07
2023-03-27T10:11:36.872Z,76.79
2023-03-27T10:12:36.815Z,76.50
2023-03-27T10:14:29.660Z,76.40
2023-03-27T10:15:29.600Z,76.50
2023-03-27T10:17:23.042Z,77.26
2023-03-27T10:18:22.574Z,77.17
2023-03-27T10:20:15.474Z,77.45
2023-03-27T10:21:15.369Z,77.36
2023-03-27T10:23:08.355Z,76.69
2023-03-27T10:24:08.155Z,76.69
2023-03-27T10:26:01.623Z,77.26
2023-03-27T10:27:01.150Z,77.07
2023-03-27T10:28:53.987Z,77.64
2023-03-27T10:29:53.915Z,77.17
2023-03-27T10:31:46.838Z,77.59
2023-03-27T10:32:46.776Z,76.40
2023-03-27T10:34:39.590Z,76.69
2023-03-27T10:35:39.525Z,76.21
2023-03-27T10:37:32.375Z,76.40
2023-03-27T10:38:32.295Z,76.31
2023-03-27T10:40:25.152Z,75.93
2023-03-27T10:41:28.094Z,75.93
2023-03-27T10:43:17.996Z,76.21
2023-03-27T10:44:17.949Z,77.01
2023-03-27T10:46:10.745Z,76.69
2023-03-27T10:47:10.774Z,76.59
2023-03-27T10:49:03.524Z,76.59
2023-03-27T10:50:03.462Z,76.59
2023-03-27T10:51:56.312Z,76.88
2023-03-27T10:52:56.279Z,76.88
2023-03-27T10:54:49.104Z,76.98
2023-03-27T10:55:49.034Z,76.40
2023-03-27T10:57:41.897Z,76.40
2023-03-27T10:58:41.827Z,76.40
2023-03-27T11:00:34.698Z,76.79
2023-03-27T11:01:34.724Z,76.82
2023-03-27T11:03:27.506Z,77.36
2023-03-27T11:04:27.403Z,76.64
2023-03-27T11:06:20.257Z,76.79
2023-03-27T11:07:20.197Z,76.73
2023-03-27T11:09:13.055Z,76.50
2023-03-27T11:10:13.025Z,76.98
2023-03-27T11:12:16.379Z,77.01
2023-03-27T11:13:05.773Z,76.73
2023-03-27T11:14:58.639Z,76.50
2023-03-27T11:15:58.569Z,77.11
2023-03-27T11:17:51.438Z,77.07
2023-03-27T11:18:51.370Z,76.79
2023-03-27T11:20:44.233Z,76.69
2023-03-27T11:21:44.148Z,76.64
2023-03-27T11:23:37.019Z,76.82
2023-03-27T11:24:36.941Z,76.73
2023-03-27T11:26:29.817Z,76.64
2023-03-27T11:27:29.781Z,77.01
2023-03-27T11:29:22.593Z,76.73
2023-03-27T11:30:22.529Z,76.59
2023-03-27T11:32:15.391Z,76.82
2023-03-27T11:33:15.311Z,76.64
2023-03-27T11:35:08.179Z,76.73
2023-03-27T11:36:08.174Z,76.64
2023-03-27T11:38:00.959Z,76.50
2023-03-27T11:39:00.922Z,76.73
2023-03-27T11:40:53.748Z,76.64
2023-03-27T11:41:53.680Z,76.64
2023-03-27T11:43:46.554Z,76.92
2023-03-27T11:44:46.481Z,76.73
2023-03-27T11:46:39.360Z,76.73
2023-03-27T11:47:39.327Z,76.64
2023-03-27T11:49:32.124Z,76.82
2023-03-27T11:50:32.110Z,77.01
2023-03-27T11:52:24.915Z,76.92
2023-03-27T11:53:24.854Z,76.88
2023-03-27T11:55:17.701Z,76.69
2023-03-27T11:56:17.704Z,77.01
2023-03-27T11:58:10.514Z,77.01
2023-03-27T11:59:10.450Z,76.64
2023-03-27T12:01:03.284Z,76.73
2023-03-27T12:02:03.313Z,76.92
2023-03-27T12:03:56.331Z,76.64
2023-03-27T12:04:56.105Z,77.01
2023-03-27T12:06:48.982Z,76.73
2023-03-27T12:07:48.899Z,76.73
2023-03-27T12:09:41.752Z,76.54
2023-03-27T12:10:41.757Z,76.73
2023-03-27T12:12:34.560Z,76.54
2023-03-27T12:13:41.339Z,76.54
2023-03-27T12:15:27.350Z,76.73
2023-03-27T12:16:27.463Z,76.73
2023-03-27T12:18:20.143Z,76.54
2023-03-27T12:19:28.313Z,76.82
2023-03-27T12:21:12.927Z,76.73
2023-03-27T12:22:23.017Z,76.44
2023-03-27T12:24:06.311Z,76.64
2023-03-27T12:25:05.861Z,76.44
2023-03-27T12:26:58.718Z,76.44
2023-03-27T12:27:58.636Z,76.73
2023-03-27T12:29:51.485Z,77.11
2023-03-27T12:30:51.416Z,76.54
2023-03-27T12:32:44.892Z,76.54
2023-03-27T12:33:44.601Z,76.82
2023-03-27T12:35:37.263Z,76.35
2023-03-27T12:36:37.193Z,76.25
2023-03-27T12:38:30.059Z,76.16
2023-03-27T12:39:30.023Z,76.25
2023-03-27T12:41:22.848Z,76.35
2023-03-27T12:42:22.776Z,76.54
2023-03-27T12:44:15.657Z,76.54
2023-03-27T12:45:15.565Z,76.35
2023-03-27T12:47:09.151Z,75.96
2023-03-27T12:48:08.431Z,76.06
2023-03-27T12:50:01.238Z,75.96
2023-03-27T12:51:01.428Z,76.54
2023-03-27T12:52:54.028Z,75.96
2023-03-27T12:53:53.992Z,76.16
2023-03-27T12:55:54.367Z,76.25
2023-03-27T12:56:54.337Z,76.06
2023-03-27T12:58:47.116Z,75.96
2023-03-27T12:59:47.044Z,76.06
2023-03-27T13:01:51.113Z,76.35
2023-03-27T13:02:39.929Z,76.06
2023-03-27T13:04:32.685Z,76.35
2023-03-27T13:05:32.617Z,76.54
2023-03-27T13:07:25.473Z,76.25
2023-03-27T13:08:25.421Z,76.25
2023-03-27T13:10:18.273Z,76.44
2023-03-27T13:11:18.228Z,75.78
2023-03-27T13:13:11.062Z,75.87
2023-03-27T13:14:11.073Z,76.35
2023-03-27T13:16:03.868Z,75.78
2023-03-27T13:17:03.791Z,76.35
2023-03-27T13:18:56.647Z,76.06
2023-03-27T13:19:56.575Z,76.06
2023-03-27T13:21:49.434Z,76.06
2023-03-27T13:22:49.374Z,75.96
2023-03-27T13:24:42.234Z,76.82
2023-03-27T13:25:42.198Z,76.54
2023-03-27T13:27:35.015Z,76.64
2023-03-27T13:28:35.035Z,76.64
2023-03-27T13:30:27.814Z,76.64
2023-03-27T13:31:27.799Z,76.82
2023-03-27T13:33:20.614Z,76.92
2023-03-27T13:34:20.553Z,76.82
2023-03-27T13:36:13.520Z,77.40
2023-03-27T13:37:13.414Z,77.59
2023-03-27T13:39:06.273Z,77.40
2023-03-27T13:40:06.206Z,77.30
2023-03-27T13:42:01.656Z,77.11
2023-03-27T13:42:58.999Z,77.30
2023-03-27T13:44:51.928Z,77.59
2023-03-27T13:45:51.860Z,77.30
2023-03-27T13:47:44.804Z,77.49
2023-03-27T13:48:44.799Z,77.30
2023-03-27T13:50:37.550Z,77.49
2023-03-27T13:51:37.496Z,77.49
2023-03-27T13:53:30.336Z,77.97
2023-03-27T13:54:30.277Z,77.97
2023-03-27T13:56:23.123Z,77.87
2023-03-27T13:57:23.067Z,77.78
2023-03-27T13:59:15.919Z,77.59
2023-03-27T14:00:15.860Z,77.69
2023-03-27T14:02:08.745Z,77.78
2023-03-27T14:03:08.681Z,77.87
2023-03-27T14:05:01.505Z,77.87
2023-03-27T14:06:01.657Z,77.87
2023-03-27T14:07:54.296Z,77.78
2023-03-27T14:08:54.226Z,77.78
2023-03-27T14:10:47.083Z,77.69
2023-03-27T14:11:47.020Z,77.97
2023-03-27T14:13:39.892Z,77.69
2023-03-27T14:14:39.821Z,77.97
2023-03-27T14:16:32.741Z,77.49
2023-03-27T14:17:32.730Z,77.49
2023-03-27T14:19:25.491Z,78.06
2023-03-27T14:20:25.410Z,77.69
2023-03-27T14:22:18.260Z,77.78
2023-03-27T14:23:18.215Z,77.97
2023-03-27T14:25:11.063Z,77.69
2023-03-27T14:26:10.994Z,77.40
2023-03-27T14:28:03.855Z,77.69
2023-03-27T14:29:03.825Z,77.69
2023-03-27T14:30:56.702Z,77.69
2023-03-27T14:31:56.632Z,77.97
2023-03-27T14:33:49.464Z,77.40
2023-03-27T14:34:53.757Z,77.40
2023-03-27T14:36:42.414Z,77.40
2023-03-27T14:37:42.189Z,77.59
2023-03-27T14:39:35.039Z,78.54
2023-03-27T14:40:34.967Z,78.64
2023-03-27T14:42:29.754Z,77.78
2023-03-27T14:43:27.768Z,77.69
2023-03-27T14:45:20.730Z,77.97
2023-03-27T14:46:20.610Z,77.40
2023-03-27T14:48:13.440Z,78.16
2023-03-27T14:49:13.379Z,77.59
2023-03-27T14:51:06.202Z,77.59
2023-03-27T14:52:06.134Z,77.87
2023-03-27T14:53:58.994Z,77.59
2023-03-27T14:54:58.925Z,77.69
2023-03-27T14:56:51.894Z,77.69
2023-03-27T14:57:51.781Z,77.69
2023-03-27T14:59:44.616Z,77.59
2023-03-27T15:00:44.564Z,77.59
2023-03-27T15:02:37.433Z,77.69
2023-03-27T15:03:37.379Z,77.87
2023-03-27T15:05:48.260Z,78.06
2023-03-27T15:06:30.129Z,77.78
2023-03-27T15:08:22.989Z,77.97
2023-03-27T15:09:22.922Z,77.97
2023-03-27T15:11:15.794Z,77.97
2023-03-27T15:12:15.732Z,78.35
2023-03-27T15:14:40.099Z,78.64
2023-03-27T15:15:08.507Z,78.64
2023-03-27T15:17:01.443Z,78.44
2023-03-27T15:18:01.316Z,78.25
2023-03-27T15:19:54.208Z,78.44
2023-03-27T15:20:54.111Z,78.25
2023-03-27T15:22:46.966Z,78.25
2023-03-27T15:23:46.898Z,78.16
2023-03-27T15:25:39.757Z,78.06
2023-03-27T15:26:39.691Z,78.16
2023-03-27T15:28:32.549Z,78.35
2023-03-27T15:29:32.488Z,78.06
2023-03-27T15:31:25.521Z,78.44
2023-03-27T15:32:25.310Z,78.35
2023-03-27T15:34:18.148Z,78.44
2023-03-27T15:35:18.233Z,78.64
2023-03-27T15:37:10.927Z,78.06
2023-03-27T15:38:10.852Z,77.59
2023-03-27T15:40:03.763Z,77.69
2023-03-27T15:41:03.655Z,77.59
2023-03-27T15:42:56.630Z,78.73
2023-03-27T15:43:56.472Z,78.44
2023-03-27T15:45:49.328Z,77.59
2023-03-27T15:46:49.355Z,77.49
2023-03-27T15:48:42.129Z,77.69
2023-03-27T15:49:42.068Z,77.69
2023-03-27T15:51:34.910Z,77.69
2023-03-27T15:52:34.842Z,77.59
2023-03-27T15:54:27.715Z,77.69
2023-03-27T15:55:27.635Z,77.97
2023-03-27T15:57:20.506Z,77.97
2023-03-27T15:58:20.430Z,77.87
2023-03-27T16:00:13.287Z,77.97
2023-03-27T16:01:18.963Z,77.69
2023-03-27T16:03:06.179Z,77.78
2023-03-27T16:04:06.101Z,78.06
2023-03-27T16:05:59.080Z,77.69
2023-03-27T16:06:58.799Z,77.59
2023-03-27T16:08:51.663Z,77.69
2023-03-27T16:09:51.604Z,77.78
2023-03-27T16:11:44.443Z,77.97
2023-03-27T16:12:44.381Z,77.78
2023-03-27T16:14:37.301Z,78.06
2023-03-27T16:15:37.171Z,78.64
2023-03-27T16:17:30.087Z,77.78
2023-03-27T16:18:29.965Z,78.06
2023-03-27T16:20:23.423Z,78.83
2023-03-27T16:21:22.952Z,78.64
2023-03-27T16:23:15.808Z,78.25
2023-03-27T16:24:15.739Z,78.35
2023-03-27T16:26:08.599Z,78.35
2023-03-27T16:27:08.530Z,77.97
2023-03-27T16:29:01.392Z,78.16
2023-03-27T16:30:01.345Z,78.06
2023-03-27T16:31:54.425Z,78.83
2023-03-27T16:32:54.146Z,78.83
2023-03-27T16:34:46.975Z,78.92
2023-03-27T16:35:46.949Z,78.73
2023-03-27T16:37:39.765Z,78.92
2023-03-27T16:38:39.701Z,78.54
2023-03-27T16:40:32.560Z,78.64
2023-03-27T16:41:32.491Z,78.83
2023-03-27T16:43:25.389Z,78.64
2023-03-27T16:44:25.307Z,78.64
2023-03-27T16:46:18.226Z,78.44
2023-03-27T16:47:18.106Z,78.44
2023-03-27T16:49:10.959Z,78.64
2023-03-27T16:50:11.862Z,78.64
2023-03-27T16:52:03.778Z,78.64
2023-03-27T16:53:03.698Z,78.83
2023-03-27T16:54:56.563Z,78.54
2023-03-27T16:55:56.650Z,78.64
2023-03-27T16:57:49.357Z,78.64
2023-03-27T16:58:49.300Z,78.64
2023-03-27T17:00:42.174Z,78.73
2023-03-27T17:01:42.083Z,78.44
2023-03-27T17:03:34.937Z,78.64
2023-03-27T17:04:34.905Z,78.92
2023-03-27T17:06:27.727Z,78.44
2023-03-27T17:07:27.706Z,79.02
2023-03-27T17:09:20.537Z,79.02
2023-03-27T17:10:20.457Z,78.64
2023-03-27T17:12:13.359Z,78.92
2023-03-27T17:13:13.249Z,79.21
2023-03-27T17:15:06.126Z,78.54
2023-03-27T17:16:06.048Z,78.64
2023-03-27T17:17:59.063Z,78.44
2023-03-27T17:18:58.855Z,78.64
2023-03-27T17:20:51.743Z,78.35
2023-03-27T17:21:51.633Z,78.73
2023-03-27T17:23:44.494Z,78.44
2023-03-27T17:26:37.277Z,78.92
2023-03-27T17:27:37.211Z,79.02
2023-03-27T17:29:30.070Z,79.02
2023-03-27T17:30:39.484Z,78.83
2023-03-27T17:32:22.903Z,79.11
2023-03-27T17:33:22.815Z,79.02
2023-03-27T17:35:15.652Z,78.83
2023-03-27T17:36:15.584Z,78.92
2023-03-27T17:38:08.441Z,78.92
2023-03-27T17:39:08.381Z,79.02
2023-03-27T17:41:01.224Z,78.92
2023-03-27T17:42:01.167Z,79.21
2023-03-27T17:43:54.011Z,78.83
2023-03-27T17:44:53.945Z,78.92
2023-03-27T17:46:46.871Z,78.92
2023-03-27T17:47:46.768Z,78.73
2023-03-27T17:49:39.611Z,78.92
2023-03-27T17:50:39.523Z,78.83
2023-03-27T17:52:32.384Z,78.92
2023-03-27T17:53:32.317Z,79.02
2023-03-27T17:55:25.277Z,78.92
2023-03-27T17:56:25.117Z,78.92
2023-03-27T17:58:17.971Z,78.83
2023-03-27T17:59:17.904Z,78.92
2023-03-27T18:01:10.816Z,79.02
2023-03-27T18:02:10.742Z,79.21
2023-03-27T18:04:03.673Z,79.59
2023-03-27T18:05:03.486Z,79.49
2023-03-27T18:06:56.345Z,79.21
2023-03-27T18:07:56.278Z,79.21
2023-03-27T18:09:49.132Z,79.21
2023-03-27T18:10:49.116Z,79.21
2023-03-27T18:12:41.923Z,79.21
2023-03-27T18:13:41.862Z,79.49
2023-03-27T18:15:34.719Z,79.30
2023-03-27T18:16:34.676Z,79.21
2023-03-27T18:18:27.518Z,79.30
2023-03-27T18:19:27.448Z,79.30
2023-03-27T18:21:20.314Z,79.30
2023-03-27T18:22:20.238Z,79.21
2023-03-27T18:24:13.095Z,79.11
2023-03-27T18:25:13.022Z,79.02
2023-03-27T18:27:05.887Z,79.11
2023-03-27T18:28:05.822Z,79.21
2023-03-27T18:29:58.671Z,79.11
2023-03-27T18:30:58.603Z,79.02
2023-03-27T18:32:51.480Z,79.88
2023-03-27T18:33:51.498Z,79.68
2023-03-27T18:35:44.264Z,79.21